Time;durP1;ratioP1;P1;durP2;ratioP2;P2;SDS_P1;SDS_P2;PMS_P1;PMS_P2;Temp;Humidity;BMP_temperature;BMP_pressure;BME280_temperature;BME280_humidity;BME280_pressure;Samples;Min_cycle;Max_cycle;Signal;HPM_P1;HPM_P2
2023/10/19 00:02:28;;;;;;;14.48;9.38;;;9.00;95.40;;;;;;5048798;28;20087;-70
2023/10/19 00:05:16;;;;;;;14.48;10.25;;;9.00;95.40;;;;;;5063400;28;20043;-70
2023/10/19 00:13:57;;;;;;;16.30;10.82;;;9.00;95.40;;;;;;5029537;28;20415;-71
2023/10/19 00:16:50;;;;;;;15.43;9.48;;;9.00;95.40;;;;;;5030100;28;20532;-70
2023/10/19 00:19:39;;;;;;;15.23;9.90;;;9.00;95.40;;;;;;5034512;28;20119;-70
2023/10/19 00:22:25;;;;;;;12.48;9.70;;;9.00;95.40;;;;;;5035808;28;20176;-69
2023/10/19 00:25:14;;;;;;;15.77;10.18;;;9.00;95.40;;;;;;5031682;28;20076;-71
2023/10/19 00:28:04;;;;;;;15.80;10.98;;;9.00;95.40;;;;;;5031561;28;20088;-70
2023/10/19 00:30:52;;;;;;;19.15;10.93;;;9.00;95.40;;;;;;5036602;28;20462;-70
2023/10/19 00:33:39;;;;;;;14.48;9.95;;;9.00;95.40;;;;;;5045989;28;20068;-70
2023/10/19 00:36:26;;;;;;;14.13;9.80;;;9.00;95.40;;;;;;5040693;28;20041;-71
2023/10/19 00:39:20;;;;;;;13.68;9.35;;;9.00;95.40;;;;;;5049428;28;20494;-70
2023/10/19 00:42:06;;;;;;;13.65;9.95;;;9.00;95.40;;;;;;5038955;28;20042;-71
2023/10/19 00:45:00;;;;;;;15.27;9.65;;;9.00;95.40;;;;;;5045442;28;20037;-70
2023/10/19 00:47:48;;;;;;;14.98;10.00;;;8.90;95.40;;;;;;5041158;28;20036;-70
2023/10/19 00:50:35;;;;;;;19.15;11.05;;;8.90;95.40;;;;;;5034701;28;20099;-71
2023/10/19 00:53:22;;;;;;;17.73;10.57;;;8.90;95.40;;;;;;5031442;28;20112;-70
2023/10/19 00:56:10;;;;;;;16.17;10.55;;;8.90;95.40;;;;;;5036825;28;20069;-69
2023/10/19 00:59:00;;;;;;;18.88;9.27;;;8.90;95.50;;;;;;5042987;28;20039;-69
2023/10/19 01:01:49;;;;;;;16.90;11.07;;;8.90;95.50;;;;;;5016226;28;20380;-71
2023/10/19 01:04:35;;;;;;;14.02;9.55;;;8.90;95.50;;;;;;5042712;28;20037;-69
2023/10/19 01:07:27;;;;;;;16.65;11.00;;;8.90;95.50;;;;;;5028018;28;20053;-69
2023/10/19 01:10:20;;;;;;;17.27;10.82;;;8.90;95.60;;;;;;5029409;28;20438;-69
2023/10/19 01:13:06;;;;;;;17.35;10.75;;;8.90;95.60;;;;;;5028918;28;20065;-68
2023/10/19 01:15:54;;;;;;;15.40;10.05;;;8.90;95.60;;;;;;5031496;28;20175;-69
2023/10/19 01:18:42;;;;;;;17.15;10.77;;;8.90;95.60;;;;;;5040768;28;20048;-70
2023/10/19 01:21:37;;;;;;;17.00;10.65;;;8.80;95.60;;;;;;5029039;28;20108;-68
2023/10/19 01:24:41;;;;;;;16.05;10.50;;;8.90;95.60;;;;;;5028708;28;20048;-68
2023/10/19 01:27:28;;;;;;;14.07;9.85;;;8.80;95.60;;;;;;5045858;28;20504;-68
2023/10/19 01:30:19;;;;;;;15.88;10.23;;;8.80;95.60;;;;;;5035749;28;20087;-70
2023/10/19 01:33:12;;;;;;;16.10;10.85;;;8.80;95.70;;;;;;5048713;28;20041;-69
2023/10/19 01:36:10;;;;;;;16.55;10.70;;;8.80;95.70;;;;;;5037923;28;20274;-69
2023/10/19 01:39:00;;;;;;;18.33;10.32;;;8.80;95.70;;;;;;5027352;28;20406;-70
2023/10/19 01:41:50;;;;;;;16.63;10.63;;;8.80;95.70;;;;;;5032562;28;20077;-70
2023/10/19 01:44:36;;;;;;;18.40;11.30;;;8.80;95.70;;;;;;5033065;28;20041;-69
2023/10/19 01:47:22;;;;;;;16.75;11.15;;;8.80;95.70;;;;;;5017089;28;20141;-69
2023/10/19 01:50:19;;;;;;;17.00;11.85;;;8.80;95.80;;;;;;5014052;28;20049;-69
2023/10/19 01:53:15;;;;;;;15.63;10.82;;;8.80;95.80;;;;;;5036645;28;20033;-70
2023/10/19 01:56:00;;;;;;;;;;;8.80;95.80;;;;;;5034190;28;20051;-70
2023/10/19 01:58:47;;;;;;;16.13;11.90;;;8.80;95.70;;;;;;5043299;28;19912;-71
2023/10/19 02:01:33;;;;;;;18.50;12.10;;;8.70;95.70;;;;;;5051884;28;20033;-68
2023/10/19 02:04:21;;;;;;;18.77;11.77;;;8.70;95.80;;;;;;5045167;28;20228;-70
2023/10/19 02:07:12;;;;;;;16.92;11.45;;;8.70;95.80;;;;;;5032385;28;20103;-69
2023/10/19 02:09:58;;;;;;;16.00;10.95;;;8.70;95.90;;;;;;5036270;28;20140;-68
2023/10/19 02:12:46;;;;;;;16.77;11.43;;;8.70;95.90;;;;;;5043477;28;20066;-69
2023/10/19 02:15:37;;;;;;;20.40;11.38;;;8.70;95.90;;;;;;5038093;28;20123;-69
2023/10/19 02:18:23;;;;;;;15.50;11.90;;;8.70;95.90;;;;;;5026855;28;20054;-69
2023/10/19 02:21:11;;;;;;;18.13;12.98;;;8.80;96.00;;;;;;5049869;28;20044;-69
2023/10/19 02:23:57;;;;;;;17.35;11.02;;;8.80;96.00;;;;;;5052038;28;20457;-69
2023/10/19 02:26:46;;;;;;;20.33;11.50;;;8.80;96.00;;;;;;5049616;28;20162;-69
2023/10/19 02:29:32;;;;;;;16.35;11.63;;;8.80;96.00;;;;;;5046788;28;20032;-68
2023/10/19 02:32:19;;;;;;;18.15;11.73;;;8.80;96.00;;;;;;5017360;28;20042;-69
2023/10/19 02:35:05;;;;;;;18.10;11.68;;;8.80;96.00;;;;;;5031356;28;20099;-69
2023/10/19 02:37:51;;;;;;;17.95;12.05;;;8.80;96.00;;;;;;5030799;28;20041;-69
2023/10/19 02:40:37;;;;;;;19.35;12.68;;;8.80;96.00;;;;;;5032443;28;20488;-69
2023/10/19 02:43:24;;;;;;;19.25;12.25;;;8.80;96.00;;;;;;5046857;28;20099;-69
2023/10/19 02:46:10;;;;;;;20.52;13.25;;;8.90;96.00;;;;;;5038007;28;20075;-70
2023/10/19 02:48:56;;;;;;;18.38;12.40;;;8.90;96.00;;;;;;5031744;28;20037;-71
2023/10/19 02:51:46;;;;;;;16.67;12.35;;;8.90;95.90;;;;;;5032740;28;20406;-70
2023/10/19 02:54:35;;;;;;;18.30;12.10;;;8.90;95.90;;;;;;5031281;28;20167;-70
2023/10/19 02:57:21;;;;;;;19.02;11.65;;;8.90;95.90;;;;;;5039882;28;20048;-70
2023/10/19 03:00:11;;;;;;;17.95;11.95;;;8.90;95.90;;;;;;5031811;28;20034;-70
2023/10/19 03:02:59;;;;;;;18.35;12.50;;;8.90;95.90;;;;;;5035771;28;20158;-70
2023/10/19 03:05:46;;;;;;;16.85;12.18;;;8.90;95.90;;;;;;5030435;28;20041;-71
2023/10/19 03:08:32;;;;;;;17.02;11.10;;;9.00;95.90;;;;;;5049534;28;20120;-70
2023/10/19 03:11:19;;;;;;;19.75;11.85;;;9.00;95.90;;;;;;5049827;28;20059;-71
2023/10/19 03:14:05;;;;;;;18.20;12.25;;;8.90;95.90;;;;;;5037490;28;20088;-69
2023/10/19 03:16:55;;;;;;;16.80;11.02;;;9.00;95.90;;;;;;5031210;28;20043;-70
2023/10/19 03:19:42;;;;;;;18.63;12.27;;;9.00;95.90;;;;;;5015572;28;20048;-70
2023/10/19 03:22:30;;;;;;;16.45;11.35;;;9.00;95.90;;;;;;5039414;28;20037;-70
2023/10/19 03:28:25;;;;;;;17.40;12.63;;;9.00;95.90;;;;;;5030328;28;20057;-70
2023/10/19 03:31:17;;;;;;;16.85;11.55;;;9.00;95.90;;;;;;5032786;28;20467;-69
2023/10/19 03:34:05;;;;;;;18.00;11.65;;;9.00;95.80;;;;;;5048807;28;20037;-69
2023/10/19 03:36:51;;;;;;;18.88;12.30;;;9.00;95.80;;;;;;5031369;28;20056;-70
2023/10/19 03:39:37;;;;;;;21.65;13.02;;;9.00;95.80;;;;;;5040185;28;20048;-69
2023/10/19 03:42:32;;;;;;;20.80;13.05;;;9.00;95.80;;;;;;5048705;28;20122;-69
2023/10/19 03:45:22;;;;;;;18.30;12.18;;;9.00;95.90;;;;;;5045136;28;20037;-70
2023/10/19 03:48:09;;;;;;;18.17;12.57;;;9.00;95.90;;;;;;5036354;28;20036;-70
2023/10/19 03:50:56;;;;;;;18.80;12.70;;;9.00;95.90;;;;;;5042434;28;20102;-69
2023/10/19 03:53:54;;;;;;;19.67;12.52;;;9.00;95.90;;;;;;5029749;28;20057;-69
2023/10/19 03:56:41;;;;;;;17.52;11.82;;;9.00;95.90;;;;;;5038699;28;20496;-70
2023/10/19 03:59:31;;;;;;;18.67;13.00;;;9.00;96.00;;;;;;5051943;28;20390;-70
2023/10/19 04:02:20;;;;;;;18.75;13.13;;;9.10;96.00;;;;;;5049898;28;20056;-69
2023/10/19 04:05:09;;;;;;;18.10;13.10;;;9.10;95.90;;;;;;5033622;28;20482;-68
2023/10/19 04:07:55;;;;;;;18.17;13.07;;;9.00;95.90;;;;;;5035178;28;20503;-68
2023/10/19 04:10:45;;;;;;;19.20;13.30;;;9.00;95.90;;;;;;5040774;28;20037;-68
2023/10/19 04:13:30;;;;;;;20.13;13.18;;;9.00;95.90;;;;;;5035673;28;20136;-69
2023/10/19 04:16:16;;;;;;;21.75;13.63;;;9.00;95.90;;;;;;5032282;28;20108;-68
2023/10/19 04:19:04;;;;;;;17.08;13.38;;;9.00;95.90;;;;;;5030951;28;20049;-70
2023/10/19 04:21:50;;;;;;;21.50;13.98;;;9.00;95.90;;;;;;5030580;28;20517;-70
2023/10/19 04:24:36;;;;;;;20.88;12.52;;;9.00;95.90;;;;;;5036606;28;20044;-70
2023/10/19 04:27:23;;;;;;;19.60;12.98;;;9.00;95.90;;;;;;5029712;28;20049;-70
2023/10/19 04:30:16;;;;;;;19.77;12.45;;;9.00;95.90;;;;;;5038676;28;20037;-69
2023/10/19 04:33:02;;;;;;;22.13;14.13;;;9.00;95.90;;;;;;5028916;28;20034;-69
2023/10/19 04:35:55;;;;;;;21.50;13.55;;;8.90;95.90;;;;;;5029082;28;20030;-69
2023/10/19 04:38:43;;;;;;;19.88;13.82;;;8.90;95.90;;;;;;5031491;28;20112;-69
2023/10/19 04:41:29;;;;;;;19.98;13.65;;;8.90;95.90;;;;;;5049741;28;20110;-70
2023/10/19 04:44:16;;;;;;;22.63;13.35;;;8.90;95.90;;;;;;5035458;28;20045;-70
2023/10/19 04:47:02;;;;;;;23.38;13.55;;;8.90;96.00;;;;;;5028976;28;20516;-68
2023/10/19 04:49:47;;;;;;;17.60;13.52;;;8.80;96.00;;;;;;5032444;28;20069;-69
2023/10/19 04:52:34;;;;;;;21.90;13.95;;;8.80;96.00;;;;;;5029434;28;20120;-70
2023/10/19 04:55:20;;;;;;;20.23;13.60;;;8.80;96.00;;;;;;5044077;28;20044;-69
2023/10/19 04:58:06;;;;;;;24.05;14.80;;;8.80;96.10;;;;;;5049259;28;20044;-69
2023/10/19 05:00:53;;;;;;;19.45;13.63;;;8.90;96.10;;;;;;5040029;28;20480;-71
2023/10/19 05:03:38;;;;;;;20.67;13.65;;;8.80;96.10;;;;;;5043652;28;20123;-71
2023/10/19 05:06:24;;;;;;;19.77;13.57;;;8.80;96.20;;;;;;5040082;28;20136;-76
2023/10/19 05:09:12;;;;;;;21.45;13.60;;;8.80;96.20;;;;;;5039888;28;20041;-73
2023/10/19 05:11:57;;;;;;;21.98;14.20;;;8.80;96.20;;;;;;5040974;28;20049;-70
2023/10/19 05:14:43;;;;;;;18.80;13.38;;;8.90;96.30;;;;;;5040089;28;20125;-80
2023/10/19 05:17:29;;;;;;;21.98;13.43;;;8.90;96.30;;;;;;5042020;28;20048;-69
2023/10/19 05:20:15;;;;;;;23.92;14.02;;;8.90;96.30;;;;;;5020287;28;20391;-69
2023/10/19 05:23:01;;;;;;;19.95;13.95;;;8.90;96.30;;;;;;5032273;28;20049;-68
2023/10/19 05:25:47;;;;;;;24.73;16.08;;;8.80;96.20;;;;;;5028376;28;20041;-67
2023/10/19 05:28:33;;;;;;;21.83;14.90;;;8.80;96.20;;;;;;5029584;28;20091;-68
2023/10/19 05:31:19;;;;;;;24.05;15.27;;;8.80;96.20;;;;;;5018965;28;20069;-68
2023/10/19 05:34:07;;;;;;;21.98;13.77;;;8.80;96.20;;;;;;5032887;28;20045;-68
2023/10/19 05:36:54;;;;;;;23.55;15.60;;;8.80;96.20;;;;;;5042480;28;20483;-69
2023/10/19 05:39:40;;;;;;;22.77;16.15;;;8.70;96.20;;;;;;5013401;28;20984;-67
2023/10/19 05:42:28;;;;;;;23.20;16.40;;;8.70;96.30;;;;;;5043555;28;20482;-69
2023/10/19 05:45:16;;;;;;;22.55;15.18;;;8.70;96.30;;;;;;5031456;28;20132;-68
2023/10/19 05:48:08;;;;;;;25.20;15.57;;;8.70;96.30;;;;;;5041579;28;20803;-68
2023/10/19 05:50:54;;;;;;;23.58;15.38;;;8.70;96.30;;;;;;5030762;28;20163;-69
2023/10/19 05:53:41;;;;;;;23.08;15.50;;;8.70;96.30;;;;;;5048201;28;20464;-71
2023/10/19 05:56:28;;;;;;;25.48;16.60;;;8.70;96.30;;;;;;5045845;28;20041;-68
2023/10/19 05:59:14;;;;;;;22.65;15.73;;;8.70;96.30;;;;;;5017394;28;20152;-70
2023/10/19 06:02:00;;;;;;;24.98;16.02;;;8.70;96.40;;;;;;5027342;28;20041;-68
2023/10/19 06:04:46;;;;;;;25.15;15.00;;;8.70;96.40;;;;;;5031809;28;20068;-68
2023/10/19 06:07:32;;;;;;;21.65;16.30;;;8.70;96.40;;;;;;5048352;28;20041;-66
2023/10/19 06:10:20;;;;;;;29.42;16.23;;;8.70;96.50;;;;;;5046844;28;20137;-67
2023/10/19 06:13:09;;;;;;;22.40;15.50;;;8.70;96.60;;;;;;5030237;28;20063;-68
2023/10/19 06:15:55;;;;;;;22.50;15.00;;;8.70;96.70;;;;;;5046714;28;20037;-66
2023/10/19 06:18:43;;;;;;;24.05;16.05;;;8.70;96.80;;;;;;5015744;28;20037;-66
2023/10/19 06:21:30;;;;;;;25.95;15.95;;;8.70;96.80;;;;;;5036497;28;20044;-69
2023/10/19 06:24:16;;;;;;;23.65;16.60;;;8.60;96.80;;;;;;5047737;28;20394;-67
2023/10/19 06:27:02;;;;;;;24.35;16.15;;;8.60;96.90;;;;;;5029218;28;20399;-67
2023/10/19 06:29:49;;;;;;;24.33;16.10;;;8.60;97.00;;;;;;5045450;28;20044;-68
2023/10/19 06:32:35;;;;;;;24.65;15.13;;;8.60;97.00;;;;;;5028362;28;20296;-68
2023/10/19 06:35:22;;;;;;;24.42;17.33;;;8.60;97.20;;;;;;5014051;28;20155;-69
2023/10/19 06:38:09;;;;;;;30.60;17.80;;;8.60;97.30;;;;;;5034976;28;20100;-68
2023/10/19 06:40:56;;;;;;;23.13;15.98;;;8.50;97.30;;;;;;5036643;28;20116;-68
2023/10/19 06:43:41;;;;;;;23.35;15.35;;;8.60;97.50;;;;;;5039321;28;20052;-68
2023/10/19 06:46:27;;;;;;;23.92;15.75;;;8.60;97.50;;;;;;5033814;28;20065;-68
2023/10/19 06:49:15;;;;;;;24.58;14.73;;;8.50;97.60;;;;;;5031354;28;20034;-68
2023/10/19 06:52:01;;;;;;;29.33;17.88;;;8.50;97.70;;;;;;5047197;28;20080;-67
2023/10/19 06:54:49;;;;;;;26.20;15.82;;;8.60;97.70;;;;;;5032975;28;20092;-68
2023/10/19 06:57:35;;;;;;;26.60;16.48;;;8.50;97.70;;;;;;5032663;28;20041;-69
2023/10/19 07:00:26;;;;;;;23.45;16.38;;;8.50;97.80;;;;;;5034378;28;20410;-68
2023/10/19 07:03:12;;;;;;;25.58;16.15;;;8.50;97.70;;;;;;5031951;28;20092;-67
2023/10/19 07:05:59;;;;;;;24.23;16.08;;;8.40;98.00;;;;;;5049389;28;20057;-68
2023/10/19 07:08:46;;;;;;;26.15;16.67;;;8.50;97.90;;;;;;5033184;28;20100;-67
2023/10/19 07:11:35;;;;;;;23.55;15.23;;;8.50;97.90;;;;;;5031300;28;20041;-69
2023/10/19 07:14:23;;;;;;;22.33;16.17;;;8.50;97.90;;;;;;5037449;28;20037;-68
2023/10/19 07:17:09;;;;;;;26.27;16.73;;;8.50;98.00;;;;;;5047213;28;20464;-69
2023/10/19 07:19:56;;;;;;;22.42;15.63;;;8.50;98.00;;;;;;5032743;28;20400;-68
2023/10/19 07:22:44;;;;;;;23.77;15.60;;;8.50;98.10;;;;;;5037255;28;20045;-67
2023/10/19 07:25:31;;;;;;;23.77;15.35;;;8.50;98.10;;;;;;5051129;28;20044;-67
2023/10/19 07:28:17;;;;;;;23.40;16.23;;;8.50;98.10;;;;;;5036803;28;20514;-68
2023/10/19 07:31:03;;;;;;;26.75;17.10;;;8.50;98.10;;;;;;5033604;28;20049;-69
2023/10/19 07:33:50;;;;;;;24.35;15.23;;;8.60;98.30;;;;;;5030654;28;20037;-68
2023/10/19 07:36:36;;;;;;;24.65;15.82;;;8.60;98.40;;;;;;5041147;28;20041;-68
2023/10/19 07:39:23;;;;;;;23.30;15.55;;;8.60;98.40;;;;;;5029872;28;20546;-67
2023/10/19 07:42:08;;;;;;;24.75;16.17;;;8.70;98.40;;;;;;5031897;28;20117;-68
2023/10/19 07:44:54;;;;;;;25.42;15.95;;;8.70;98.40;;;;;;5030532;28;20033;-67
2023/10/19 07:47:41;;;;;;;23.30;15.60;;;8.80;98.50;;;;;;5016194;28;20053;-68
2023/10/19 07:50:28;;;;;;;26.38;17.17;;;8.90;98.50;;;;;;5039777;28;20064;-68
2023/10/19 07:53:14;;;;;;;21.25;16.77;;;8.90;98.50;;;;;;5034322;28;20045;-67
2023/10/19 07:56:00;;;;;;;24.23;15.10;;;8.90;98.50;;;;;;5029881;28;20770;-67
2023/10/19 07:58:46;;;;;;;22.77;15.65;;;9.00;98.50;;;;;;5029835;28;20045;-68
2023/10/19 08:01:32;;;;;;;25.13;16.08;;;9.10;98.60;;;;;;5036184;28;20478;-68
2023/10/19 08:04:18;;;;;;;25.98;16.08;;;9.10;98.50;;;;;;5041479;28;20131;-68
2023/10/19 08:07:04;;;;;;;18.40;13.95;;;9.10;98.50;;;;;;5028274;28;20059;-66
2023/10/19 08:09:50;;;;;;;19.92;14.35;;;9.10;98.50;;;;;;5046291;28;20032;-69
2023/10/19 08:12:43;;;;;;;22.42;14.85;;;9.20;98.50;;;;;;5046568;28;20049;-82
2023/10/19 08:15:30;;;;;;;21.55;13.68;;;9.20;98.40;;;;;;5036007;28;20045;-80
2023/10/19 08:18:16;;;;;;;24.83;14.23;;;9.30;98.40;;;;;;5049944;28;20033;-80
2023/10/19 08:21:02;;;;;;;23.80;15.02;;;9.30;98.40;;;;;;5017502;28;20136;-78
2023/10/19 08:23:48;;;;;;;25.77;15.05;;;9.30;98.30;;;;;;5035848;28;20104;-80
2023/10/19 08:26:35;;;;;;;19.88;14.52;;;9.30;98.30;;;;;;5051704;28;20103;-76
2023/10/19 08:29:23;;;;;;;20.17;14.18;;;9.30;98.20;;;;;;5047893;28;20495;-77
2023/10/19 08:32:09;;;;;;;25.83;15.10;;;9.30;98.20;;;;;;5039500;28;20033;-76
2023/10/19 08:34:55;;;;;;;21.13;13.90;;;9.40;98.20;;;;;;5030547;28;20127;-77
2023/10/19 08:37:42;;;;;;;26.52;15.57;;;9.40;98.20;;;;;;5030917;28;20033;-79
2023/10/19 08:40:28;;;;;;;23.40;14.88;;;9.40;98.20;;;;;;5045854;28;20052;-78
2023/10/19 08:43:17;;;;;;;22.83;14.57;;;9.50;98.20;;;;;;5047094;28;20048;-77
2023/10/19 08:46:04;;;;;;;23.80;14.38;;;9.50;98.10;;;;;;5029798;28;20228;-74
2023/10/19 08:48:50;;;;;;;24.92;14.77;;;9.50;98.10;;;;;;5048779;28;20041;-72
2023/10/19 08:51:38;;;;;;;21.52;14.82;;;9.50;98.10;;;;;;5044119;28;20072;-72
2023/10/19 08:54:25;;;;;;;20.40;14.50;;;9.60;98.00;;;;;;5041593;28;20072;-72
2023/10/19 08:57:11;;;;;;;22.95;15.32;;;9.50;98.00;;;;;;5040788;28;20044;-73
2023/10/19 08:59:58;;;;;;;21.27;13.70;;;9.60;98.00;;;;;;5063186;28;20103;-72
2023/10/19 09:02:48;;;;;;;20.42;14.73;;;9.70;98.10;;;;;;5044064;28;20044;-72
2023/10/19 09:05:34;;;;;;;18.88;14.40;;;9.70;98.10;;;;;;5047972;28;20128;-71
2023/10/19 09:08:22;;;;;;;21.35;14.82;;;9.80;98.10;;;;;;5044107;28;20045;-72
2023/10/19 09:11:08;;;;;;;20.83;13.65;;;9.80;98.20;;;;;;5038357;28;20401;-72
2023/10/19 09:13:57;;;;;;;19.65;13.77;;;9.90;98.30;;;;;;5031359;28;20041;-72
2023/10/19 09:16:56;;;;;;;21.88;14.95;;;9.90;98.20;;;;;;5041707;28;20494;-72
2023/10/19 09:19:43;;;;;;;22.67;13.52;;;10.00;98.20;;;;;;5032822;28;20044;-71
2023/10/19 09:22:36;;;;;;;21.25;15.20;;;10.00;98.10;;;;;;5052578;28;20067;-71
2023/10/19 09:25:22;;;;;;;19.40;13.52;;;10.00;98.00;;;;;;5051599;28;20055;-71
2023/10/19 09:28:10;;;;;;;26.90;13.80;;;10.10;98.10;;;;;;5032291;28;20056;-69
2023/10/19 09:30:57;;;;;;;23.38;14.43;;;10.10;98.00;;;;;;5029133;28;20034;-70
2023/10/19 09:33:48;;;;;;;20.95;13.95;;;10.10;98.00;;;;;;5038850;28;20048;-70
2023/10/19 09:36:35;;;;;;;23.00;15.43;;;10.10;98.00;;;;;;5042327;28;20852;-72
2023/10/19 09:39:23;;;;;;;23.65;14.32;;;10.10;98.00;;;;;;5033661;28;20566;-70
2023/10/19 09:42:10;;;;;;;19.10;12.55;;;10.20;98.00;;;;;;5034388;28;20045;-70
2023/10/19 09:45:05;;;;;;;23.25;12.63;;;10.20;98.10;;;;;;5041385;28;20325;-70
2023/10/19 09:47:52;;;;;;;21.97;13.33;;;10.20;98.10;;;;;;5033283;28;20515;-70
2023/10/19 09:50:38;;;;;;;22.48;13.65;;;10.30;98.10;;;;;;5036817;28;20320;-70
2023/10/19 09:53:28;;;;;;;20.88;14.20;;;10.40;98.10;;;;;;5028597;28;20048;-71
2023/10/19 09:56:27;;;;;;;19.30;14.15;;;10.40;98.10;;;;;;5041474;28;20056;-70
2023/10/19 09:59:26;;;;;;;20.30;13.13;;;10.40;98.10;;;;;;5041403;28;20040;-71
2023/10/19 10:02:13;;;;;;;19.10;13.68;;;10.40;98.10;;;;;;5040048;28;20164;-74
2023/10/19 10:04:59;;;;;;;20.35;13.15;;;10.40;98.10;;;;;;5027269;28;20053;-73
2023/10/19 10:07:45;;;;;;;18.63;13.55;;;10.50;98.10;;;;;;5038877;28;20231;-71
2023/10/19 10:10:32;;;;;;;21.15;13.93;;;10.50;98.10;;;;;;5050546;28;20036;-69
2023/10/19 10:13:27;;;;;;;20.27;13.45;;;10.50;98.10;;;;;;5037031;28;20057;-71
2023/10/19 10:16:17;;;;;;;19.25;13.93;;;10.50;98.20;;;;;;5038911;28;20056;-70
2023/10/19 10:19:04;;;;;;;16.90;11.50;;;10.50;98.20;;;;;;5032349;28;20041;-70
2023/10/19 10:22:14;;;;;;;20.70;13.70;;;10.50;98.20;;;;;;5035768;28;20073;-69
2023/10/19 10:25:00;;;;;;;18.73;12.98;;;10.50;98.20;;;;;;5051466;28;20045;-69
2023/10/19 10:27:51;;;;;;;19.63;12.77;;;10.60;98.20;;;;;;5031394;28;20116;-69
2023/10/19 10:30:57;;;;;;;19.42;12.90;;;10.60;98.30;;;;;;5031798;28;20240;-70
2023/10/19 10:33:45;;;;;;;22.48;14.75;;;10.60;98.40;;;;;;5057396;28;20083;-70
2023/10/19 10:37:02;;;;;;;22.00;14.82;;;10.60;98.40;;;;;;5022150;28;20080;-70
2023/10/19 10:39:48;;;;;;;19.02;12.90;;;10.50;98.60;;;;;;5040609;28;20478;-70
2023/10/19 10:42:35;;;;;;;17.13;13.32;;;10.50;98.70;;;;;;5045850;28;20052;-69
2023/10/19 10:45:21;;;;;;;18.48;13.57;;;10.50;98.90;;;;;;5051621;28;20082;-70
2023/10/19 10:48:14;;;;;;;20.50;13.25;;;10.50;99.10;;;;;;5047751;28;20065;-71
2023/10/19 10:51:00;;;;;;;19.75;13.70;;;10.50;99.50;;;;;;5038443;28;20132;-69
2023/10/19 10:53:48;;;;;;;20.08;13.48;;;10.50;99.40;;;;;;5036363;28;20355;-69
2023/10/19 10:56:40;;;;;;;21.45;14.45;;;10.50;99.50;;;;;;5036282;28;20410;-69
2023/10/19 10:59:26;;;;;;;19.33;14.30;;;10.40;99.50;;;;;;5048801;28;20048;-70
2023/10/19 11:02:18;;;;;;;19.63;13.88;;;10.40;99.50;;;;;;5044961;28;20040;-69
2023/10/19 11:05:05;;;;;;;22.00;13.95;;;10.40;99.50;;;;;;5049875;28;20128;-70
2023/10/19 11:08:21;;;;;;;24.17;14.00;;;10.40;99.50;;;;;;5030838;28;20139;-70
2023/10/19 11:11:11;;;;;;;20.23;14.32;;;10.30;99.50;;;;;;5030956;28;20111;-71
2023/10/19 11:14:09;;;;;;;19.00;14.63;;;10.30;99.70;;;;;;5031945;28;20502;-71
2023/10/19 11:17:11;;;;;;;22.25;14.95;;;10.30;99.60;;;;;;5048652;28;20045;-71
2023/10/19 11:19:59;;;;;;;19.08;14.18;;;10.20;99.60;;;;;;5048371;28;20107;-71
2023/10/19 11:22:50;;;;;;;18.13;12.80;;;10.20;99.70;;;;;;5043659;28;20076;-71
2023/10/19 11:25:36;;;;;;;22.45;14.93;;;10.20;99.80;;;;;;5030007;28;20045;-71
2023/10/19 11:28:22;;;;;;;20.73;14.23;;;10.20;99.80;;;;;;5048609;28;20140;-72
2023/10/19 11:31:23;;;;;;;17.85;14.23;;;10.10;99.90;;;;;;5034457;28;20038;-71
2023/10/19 11:34:09;;;;;;;19.63;14.27;;;10.10;99.90;;;;;;5050432;28;20532;-71
2023/10/19 11:37:03;;;;;;;22.35;15.85;;;10.00;99.90;;;;;;5016402;28;20212;-71
2023/10/19 11:39:52;;;;;;;19.63;14.18;;;10.00;99.90;;;;;;5040341;28;20616;-71
2023/10/19 11:42:38;;;;;;;24.77;15.80;;;9.90;99.90;;;;;;5043073;28;20040;-71
2023/10/19 11:45:24;;;;;;;22.45;16.52;;;9.90;99.90;;;;;;5030981;28;20041;-71
2023/10/19 11:48:10;;;;;;;23.50;16.02;;;9.90;99.90;;;;;;5029703;28;20545;-72
2023/10/19 11:50:56;;;;;;;24.67;14.20;;;9.90;99.90;;;;;;5031332;28;20347;-70
2023/10/19 11:53:43;;;;;;;21.65;16.60;;;9.80;99.90;;;;;;5041130;28;20051;-70
2023/10/19 11:56:28;;;;;;;20.85;14.07;;;9.80;99.90;;;;;;5049873;28;20037;-70
2023/10/19 11:59:15;;;;;;;24.33;14.63;;;9.70;99.90;;;;;;5036375;28;20038;-70
2023/10/19 12:02:03;;;;;;;22.33;15.02;;;9.80;99.90;;;;;;5033012;28;20466;-70
2023/10/19 12:04:49;;;;;;;24.48;14.85;;;9.70;99.90;;;;;;5049326;28;20346;-71
2023/10/19 12:07:39;;;;;;;22.63;15.75;;;9.70;99.90;;;;;;5034419;28;20128;-71
2023/10/19 12:10:32;;;;;;;21.52;14.65;;;9.80;99.90;;;;;;5028866;28;20400;-71
2023/10/19 12:13:18;;;;;;;19.92;15.02;;;9.70;99.90;;;;;;5039740;28;20057;-70
2023/10/19 12:16:04;;;;;;;22.63;16.23;;;9.80;99.90;;;;;;5050060;28;20171;-71
2023/10/19 12:18:51;;;;;;;23.05;15.25;;;9.90;99.90;;;;;;5033124;28;20092;-71
2023/10/19 12:21:41;;;;;;;22.60;15.70;;;9.80;99.90;;;;;;5030096;28;20068;-71
2023/10/19 12:24:29;;;;;;;23.15;16.23;;;9.90;99.90;;;;;;5029386;28;20059;-71
2023/10/19 12:27:15;;;;;;;23.60;16.90;;;9.90;99.90;;;;;;5029980;28;20053;-71
2023/10/19 12:30:10;;;;;;;22.17;16.25;;;9.90;99.90;;;;;;5029902;28;20030;-72
2023/10/19 12:32:57;;;;;;;23.95;16.13;;;9.80;99.90;;;;;;5029821;28;20093;-71
2023/10/19 12:35:51;;;;;;;23.10;16.02;;;9.90;99.90;;;;;;5029196;28;20041;-71
2023/10/19 12:38:37;;;;;;;23.95;16.45;;;9.90;99.90;;;;;;5014494;28;20042;-72
2023/10/19 12:41:24;;;;;;;22.20;16.45;;;10.00;99.90;;;;;;5031603;28;20095;-71
2023/10/19 12:44:12;;;;;;;22.38;16.23;;;10.00;99.90;;;;;;5033625;28;20057;-71
2023/10/19 12:46:58;;;;;;;24.85;17.30;;;10.00;99.90;;;;;;5036848;28;20070;-72
2023/10/19 12:49:48;;;;;;;23.95;16.85;;;10.00;99.90;;;;;;5048832;28;20059;-71
2023/10/19 12:52:37;;;;;;;21.65;16.15;;;10.00;99.90;;;;;;5022228;28;20515;-71
2023/10/19 12:55:26;;;;;;;22.92;16.88;;;10.00;99.90;;;;;;5048337;28;20185;-71
2023/10/19 12:58:15;;;;;;;27.02;19.45;;;10.00;99.90;;;;;;5034233;28;20044;-71
2023/10/19 13:01:01;;;;;;;22.92;18.35;;;10.00;99.90;;;;;;5049713;28;20055;-71
2023/10/19 13:03:49;;;;;;;24.50;17.98;;;10.00;99.90;;;;;;5049162;28;20048;-71
2023/10/19 13:06:35;;;;;;;24.95;18.85;;;10.00;99.90;;;;;;5048012;28;20067;-70
2023/10/19 13:09:21;;;;;;;26.20;17.95;;;10.00;99.90;;;;;;5035297;28;20133;-71
2023/10/19 13:12:08;;;;;;;27.40;18.58;;;10.00;99.90;;;;;;5028524;28;20065;-71
2023/10/19 13:14:56;;;;;;;23.17;17.65;;;10.00;99.90;;;;;;5037621;28;20079;-71
2023/10/19 13:17:43;;;;;;;27.65;18.08;;;9.90;99.90;;;;;;5047910;28;20053;-71
2023/10/19 13:20:36;;;;;;;27.73;18.58;;;9.90;99.90;;;;;;5048650;28;20110;-71
2023/10/19 13:23:23;;;;;;;29.52;18.27;;;9.90;99.90;;;;;;5048328;28;20127;-72
2023/10/19 13:29:02;;;;;;;28.58;17.98;;;9.70;99.90;;;;;;5028900;28;20038;-71
2023/10/19 13:31:52;;;;;;;33.30;17.83;;;9.70;99.90;;;;;;5023068;28;20041;-73
2023/10/19 13:34:40;;;;;;;27.38;18.50;;;9.70;99.90;;;;;;5048471;28;20060;-70
2023/10/19 13:37:26;;;;;;;28.13;17.40;;;9.70;99.90;;;;;;5034585;28;20047;-71
2023/10/19 13:40:12;;;;;;;25.40;18.20;;;9.70;99.90;;;;;;5048165;28;20132;-71
2023/10/19 13:42:58;;;;;;;30.25;21.00;;;9.60;99.90;;;;;;5033283;28;20040;-70
2023/10/19 13:45:47;;;;;;;27.45;18.85;;;9.60;99.90;;;;;;5044338;28;20132;-70
2023/10/19 13:48:32;;;;;;;27.73;19.15;;;9.60;99.90;;;;;;5048663;28;20033;-70
2023/10/19 13:51:20;;;;;;;25.35;18.83;;;9.60;99.90;;;;;;5048945;28;20036;-70
2023/10/19 13:54:06;;;;;;;26.52;19.58;;;9.60;99.90;;;;;;5051496;28;20043;-70
2023/10/19 13:56:52;;;;;;;24.85;18.45;;;9.60;99.90;;;;;;5052747;28;20040;-70
2023/10/19 13:59:38;;;;;;;26.70;19.83;;;9.60;99.90;;;;;;5045877;28;20034;-70
2023/10/19 14:02:24;;;;;;;26.75;19.33;;;9.60;99.90;;;;;;5035052;28;20052;-70
2023/10/19 14:05:11;;;;;;;27.67;18.85;;;9.70;99.90;;;;;;5033741;28;20049;-70
2023/10/19 14:07:57;;;;;;;30.27;19.35;;;9.60;99.90;;;;;;5053055;28;20067;-71
2023/10/19 14:10:43;;;;;;;27.10;18.83;;;9.60;99.90;;;;;;5053059;28;20202;-70
2023/10/19 14:13:29;;;;;;;27.55;18.33;;;9.60;99.90;;;;;;5036314;28;20052;-71
2023/10/19 14:16:15;;;;;;;27.60;19.38;;;9.60;99.90;;;;;;5048259;28;20123;-70
2023/10/19 14:19:02;;;;;;;27.52;19.60;;;9.70;99.90;;;;;;5032845;28;20142;-71
2023/10/19 14:21:48;;;;;;;28.50;19.77;;;9.70;99.90;;;;;;5032307;28;20056;-72
2023/10/19 14:24:34;;;;;;;26.45;19.55;;;9.70;99.90;;;;;;5032228;28;20045;-71
2023/10/19 14:27:20;;;;;;;29.00;19.33;;;9.70;99.90;;;;;;5032943;28;20191;-70
2023/10/19 14:30:09;;;;;;;30.45;20.45;;;9.70;99.90;;;;;;5032617;28;20111;-71
2023/10/19 14:32:57;;;;;;;25.17;18.60;;;9.70;99.90;;;;;;5032673;28;20449;-70
2023/10/19 14:35:43;;;;;;;30.17;18.85;;;9.60;99.90;;;;;;5048624;28;20052;-70